Lake Forest, Missouri
Current Conditions -  °F | °C
As of 10:15 PM on Monday 22 Dec 2014 (Local Time) from KSAR Reporting Station
Overcast Overcast  
Wind Chill: 51°   Ceiling: 600
Heat Index: 51°   Visibility: 10mi
Dew Point: 50°   Wind: 6mph
Humidity: 97%   Direction: 180°S
Pressure: 29.58"   Gusts: NA
Location:  37.9762°N, 90.0499°W
Report Text: KSAR 230415Z AUTO 18005KT 10SM OVC006 11/10 A2958 RMK AO2 T01050100
Loading
Personal Weather Stations






























Interactive Weather Map New forecast layout! Learn more

10-Day Weather Forecast

Advertisements
Track Severe Weather on mobile